createdAt,value
2022-07-31T00:00:19.411Z,3.60
2022-07-31T00:02:47.059Z,2.90
2022-07-31T00:05:14.710Z,3.30
2022-07-31T00:07:42.640Z,4.03
2022-07-31T00:10:09.891Z,2.20
2022-07-31T00:12:36.789Z,1.92
2022-07-31T00:15:06.235Z,2.13
2022-07-31T00:17:33.639Z,7.65
2022-07-31T00:20:00.484Z,14.57
2022-07-31T00:22:27.627Z,28.25
2022-07-31T00:24:54.476Z,20.55
2022-07-31T00:27:21.474Z,18.70
2022-07-31T00:29:48.302Z,17.27
2022-07-31T00:32:15.569Z,2.75
2022-07-31T00:34:45.386Z,1.17
2022-07-31T00:37:12.481Z,1.00
2022-07-31T00:39:39.375Z,1.08
2022-07-31T00:42:06.666Z,1.00
2022-07-31T00:44:33.522Z,1.00
2022-07-31T00:47:00.875Z,0.90
2022-07-31T00:49:37.875Z,1.08
2022-07-31T00:52:05.926Z,1.20
2022-07-31T00:54:33.837Z,1.30
2022-07-31T00:57:01.245Z,1.30
2022-07-31T00:59:29.319Z,1.30
2022-07-31T01:01:57.596Z,1.55
2022-07-31T01:04:26.382Z,1.40
2022-07-31T01:06:54.769Z,1.70
2022-07-31T01:09:22.579Z,1.40
2022-07-31T01:11:54.379Z,1.50
2022-07-31T01:14:25.578Z,1.80
2022-07-31T01:16:56.268Z,1.27
2022-07-31T01:19:39.654Z,1.55
2022-07-31T01:22:32.891Z,1.30
2022-07-31T01:25:15.426Z,1.50
2022-07-31T01:28:01.044Z,1.35
2022-07-31T01:30:35.680Z,1.42
2022-07-31T01:33:10.914Z,1.60
2022-07-31T01:35:45.537Z,1.00
2022-07-31T01:38:17.648Z,0.90
2022-07-31T01:40:50.896Z,0.90
2022-07-31T01:43:32.795Z,1.00
2022-07-31T01:46:02.975Z,1.00
2022-07-31T01:48:33.538Z,1.15
2022-07-31T01:51:03.016Z,1.40
2022-07-31T01:53:35.069Z,0.80
2022-07-31T01:56:04.348Z,0.90
2022-07-31T01:58:36.689Z,0.60
2022-07-31T02:01:05.928Z,0.65
2022-07-31T02:03:44.277Z,0.68
2022-07-31T02:06:14.963Z,0.70
2022-07-31T02:08:47.867Z,0.50
2022-07-31T02:11:18.195Z,0.80
2022-07-31T02:13:47.290Z,0.90
2022-07-31T02:16:16.633Z,0.80
2022-07-31T02:18:43.942Z,0.70
2022-07-31T02:21:11.096Z,0.60
2022-07-31T02:23:38.303Z,0.60
2022-07-31T02:26:07.394Z,1.00
2022-07-31T02:28:38.266Z,0.90
2022-07-31T02:31:08.951Z,0.90
2022-07-31T02:33:37.538Z,0.93
2022-07-31T02:36:06.954Z,1.10
2022-07-31T02:38:35.585Z,1.13
2022-07-31T02:41:05.294Z,1.00
2022-07-31T02:43:35.103Z,1.30
2022-07-31T02:46:03.687Z,1.50
2022-07-31T02:48:31.606Z,1.40
2022-07-31T02:50:58.749Z,1.20
2022-07-31T02:53:27.256Z,1.60
2022-07-31T02:55:54.335Z,1.65
2022-07-31T02:58:21.274Z,1.90
2022-07-31T03:00:48.398Z,1.70
2022-07-31T03:03:15.418Z,1.92
2022-07-31T03:05:42.564Z,2.38
2022-07-31T03:08:09.407Z,2.60
2022-07-31T03:10:36.409Z,2.72
2022-07-31T03:13:05.567Z,3.28
2022-07-31T03:15:33.774Z,2.55
2022-07-31T03:18:01.692Z,2.88
2022-07-31T03:20:39.557Z,3.00
2022-07-31T03:23:06.742Z,2.55
2022-07-31T03:25:33.799Z,3.35
2022-07-31T03:28:00.774Z,2.80
2022-07-31T03:30:27.726Z,3.05
2022-07-31T03:32:56.642Z,3.53
2022-07-31T03:35:25.024Z,2.60
2022-07-31T03:37:52.402Z,1.83
2022-07-31T03:40:19.410Z,1.35
2022-07-31T03:42:50.814Z,1.10
2022-07-31T03:45:19.388Z,1.30
2022-07-31T03:47:46.859Z,1.40
2022-07-31T03:50:15.385Z,1.10
2022-07-31T03:52:42.480Z,0.88
2022-07-31T03:55:09.768Z,1.00
2022-07-31T03:57:38.283Z,0.63
2022-07-31T04:00:07.918Z,0.50
2022-07-31T04:02:44.862Z,0.68
2022-07-31T04:05:11.849Z,1.10
2022-07-31T04:07:38.792Z,0.77
2022-07-31T04:10:06.255Z,0.60
2022-07-31T04:12:33.247Z,0.63
2022-07-31T04:15:00.139Z,0.73
2022-07-31T04:17:26.982Z,1.05
2022-07-31T04:19:57.815Z,0.90
2022-07-31T04:22:25.180Z,0.80
2022-07-31T04:24:52.223Z,0.70
2022-07-31T04:27:19.126Z,0.90
2022-07-31T04:29:46.319Z,0.80
2022-07-31T04:32:13.267Z,0.70
2022-07-31T04:34:40.205Z,0.80
2022-07-31T04:37:07.187Z,0.80
2022-07-31T04:39:34.358Z,0.90
2022-07-31T04:42:01.689Z,0.60
2022-07-31T04:44:28.754Z,0.70
2022-07-31T04:47:00.318Z,1.00
2022-07-31T04:49:27.331Z,0.70
2022-07-31T04:51:54.401Z,0.85
2022-07-31T04:54:21.304Z,0.77
2022-07-31T04:56:48.799Z,0.80
2022-07-31T04:59:18.204Z,1.05
2022-07-31T05:01:45.523Z,0.85
2022-07-31T05:04:13.066Z,0.80
2022-07-31T05:06:42.344Z,0.75
2022-07-31T05:09:16.447Z,0.90
2022-07-31T05:11:45.987Z,0.90
2022-07-31T05:14:14.472Z,0.82
2022-07-31T05:16:41.465Z,0.90
2022-07-31T05:19:14.344Z,1.00
2022-07-31T05:21:53.244Z,0.70
2022-07-31T05:24:32.668Z,1.00
2022-07-31T05:27:02.358Z,0.80
2022-07-31T05:29:29.845Z,0.80
2022-07-31T05:31:59.635Z,1.00
2022-07-31T05:34:37.604Z,0.90
2022-07-31T05:37:04.910Z,0.90
2022-07-31T05:39:31.814Z,1.05
2022-07-31T05:41:58.792Z,0.80
2022-07-31T05:44:25.950Z,0.90
2022-07-31T05:49:19.671Z,1.00
2022-07-31T05:51:47.101Z,0.93
2022-07-31T05:54:14.510Z,1.08
2022-07-31T05:56:41.429Z,1.95
2022-07-31T05:59:09.948Z,1.10
2022-07-31T06:01:37.406Z,1.08
2022-07-31T06:04:04.417Z,0.90
2022-07-31T06:06:31.466Z,1.00
2022-07-31T06:09:03.764Z,1.10
2022-07-31T06:11:32.062Z,1.15
2022-07-31T06:13:58.959Z,1.13
2022-07-31T06:16:25.803Z,1.10
2022-07-31T06:18:52.752Z,0.80
2022-07-31T06:23:45.494Z,0.85
2022-07-31T06:26:12.811Z,0.93
2022-07-31T06:28:47.713Z,0.80
2022-07-31T06:31:20.604Z,0.80
2022-07-31T06:33:48.690Z,0.70
2022-07-31T06:36:17.700Z,0.73
2022-07-31T06:38:44.843Z,0.52
2022-07-31T06:41:11.939Z,0.68
2022-07-31T06:43:38.794Z,0.45
2022-07-31T06:46:05.677Z,0.40
2022-07-31T06:48:32.469Z,0.40
2022-07-31T06:51:27.986Z,0.40
2022-07-31T06:53:46.229Z,0.50
2022-07-31T06:56:13.114Z,0.40
2022-07-31T06:58:40.019Z,0.52
2022-07-31T07:01:06.991Z,0.60
2022-07-31T07:03:34.022Z,0.68
2022-07-31T07:06:00.952Z,0.50
2022-07-31T07:08:28.106Z,0.60
2022-07-31T07:10:55.103Z,0.50
2022-07-31T07:13:22.361Z,0.40
2022-07-31T07:15:50.791Z,0.65
2022-07-31T07:18:17.682Z,0.70
2022-07-31T07:20:44.879Z,0.50
2022-07-31T07:23:11.765Z,0.73
2022-07-31T07:25:38.722Z,0.50
2022-07-31T07:28:05.617Z,0.68
2022-07-31T07:30:32.716Z,0.60
2022-07-31T07:33:00.028Z,0.50
2022-07-31T07:35:32.042Z,0.57
2022-07-31T07:38:00.873Z,0.60
2022-07-31T07:40:28.573Z,0.60
2022-07-31T07:42:58.795Z,0.55
2022-07-31T07:45:28.154Z,0.60
2022-07-31T07:48:07.271Z,0.55
2022-07-31T07:50:34.489Z,0.52
2022-07-31T07:53:01.422Z,0.60
2022-07-31T07:55:28.532Z,0.60
2022-07-31T07:58:10.003Z,0.70
2022-07-31T08:00:38.853Z,0.63
2022-07-31T08:03:49.995Z,0.60
2022-07-31T08:05:52.918Z,0.60
2022-07-31T08:08:19.866Z,0.65
2022-07-31T08:10:46.803Z,0.55
2022-07-31T08:13:13.703Z,0.68
2022-07-31T08:15:40.647Z,0.38
2022-07-31T08:18:07.740Z,0.50
2022-07-31T08:20:36.640Z,0.75
2022-07-31T08:23:03.743Z,0.55
2022-07-31T08:25:32.126Z,0.60
2022-07-31T08:27:59.159Z,0.60
2022-07-31T08:30:30.698Z,0.60
2022-07-31T08:32:58.116Z,0.57
2022-07-31T08:35:25.889Z,0.60
2022-07-31T08:38:03.230Z,0.70
2022-07-31T08:40:31.378Z,0.60
2022-07-31T08:43:01.203Z,0.70
2022-07-31T08:45:28.961Z,0.60
2022-07-31T08:47:57.602Z,0.70
2022-07-31T08:50:25.673Z,0.50
2022-07-31T08:52:55.092Z,0.50
2022-07-31T08:55:55.163Z,0.50
2022-07-31T08:58:10.775Z,0.60
2022-07-31T09:00:37.724Z,0.40
2022-07-31T09:03:04.820Z,0.80
2022-07-31T09:05:42.118Z,0.50
2022-07-31T09:08:14.741Z,0.43
2022-07-31T09:10:49.101Z,0.57
2022-07-31T09:13:19.749Z,0.52
2022-07-31T09:15:46.783Z,0.40
2022-07-31T09:18:25.366Z,0.63
2022-07-31T09:21:07.070Z,0.57
2022-07-31T09:23:33.997Z,0.50
2022-07-31T09:26:05.600Z,0.60
2022-07-31T09:28:38.038Z,0.50
2022-07-31T09:31:07.129Z,0.50
2022-07-31T09:33:34.471Z,0.40
2022-07-31T09:36:01.364Z,0.35
2022-07-31T09:38:33.684Z,0.50
2022-07-31T09:41:53.442Z,0.38
2022-07-31T09:44:09.910Z,0.50
2022-07-31T09:46:45.063Z,0.60
2022-07-31T09:49:12.509Z,0.40
2022-07-31T09:51:48.410Z,0.50
2022-07-31T09:54:22.292Z,0.40
2022-07-31T09:56:50.517Z,0.40
2022-07-31T09:59:17.861Z,0.30
2022-07-31T10:01:49.122Z,0.30
2022-07-31T10:04:22.140Z,0.40
2022-07-31T10:06:51.145Z,0.30
2022-07-31T10:09:22.073Z,0.57
2022-07-31T10:11:50.501Z,0.30
2022-07-31T10:14:31.179Z,0.40
2022-07-31T10:17:04.897Z,0.40
2022-07-31T10:19:47.148Z,0.38
2022-07-31T10:22:19.092Z,0.35
2022-07-31T10:24:48.740Z,0.40
2022-07-31T10:27:17.598Z,0.30
2022-07-31T10:29:45.707Z,0.30
2022-07-31T10:32:12.758Z,0.22
2022-07-31T10:34:40.169Z,0.13
2022-07-31T10:37:16.951Z,0.40
2022-07-31T10:39:47.514Z,0.30
2022-07-31T10:42:31.928Z,0.30
2022-07-31T10:45:09.728Z,0.30
2022-07-31T10:47:37.229Z,0.30
2022-07-31T10:50:05.457Z,0.20
2022-07-31T10:52:38.235Z,0.20
2022-07-31T10:55:30.214Z,0.40
2022-07-31T10:58:10.326Z,0.20
2022-07-31T11:00:37.987Z,0.32
2022-07-31T11:03:16.252Z,0.30
2022-07-31T11:06:03.279Z,0.30
2022-07-31T11:08:42.407Z,0.40
2022-07-31T11:11:10.662Z,0.20
2022-07-31T11:13:46.429Z,0.40
2022-07-31T11:16:13.929Z,0.20
2022-07-31T11:18:41.089Z,0.13
2022-07-31T11:21:36.031Z,0.30
2022-07-31T11:24:02.325Z,0.20
2022-07-31T11:26:33.496Z,0.10
2022-07-31T11:29:58.578Z,0.30
2022-07-31T11:32:25.480Z,0.20
2022-07-31T11:34:55.704Z,0.22
2022-07-31T11:37:30.688Z,0.30
2022-07-31T11:40:14.575Z,0.30
2022-07-31T11:42:48.206Z,0.10
2022-07-31T11:45:19.652Z,0.20
2022-07-31T11:48:12.797Z,0.20
2022-07-31T11:50:42.843Z,0.35
2022-07-31T11:53:10.896Z,0.22
2022-07-31T11:56:04.374Z,0.47
2022-07-31T11:58:33.097Z,0.20
2022-07-31T12:01:02.367Z,0.20
2022-07-31T12:03:31.770Z,0.20
2022-07-31T12:05:59.111Z,0.20
2022-07-31T12:08:27.336Z,0.20
2022-07-31T12:10:56.136Z,0.20
2022-07-31T12:13:24.707Z,0.20
2022-07-31T12:16:11.459Z,0.38
2022-07-31T12:18:59.764Z,0.20
2022-07-31T12:21:33.428Z,0.47
2022-07-31T12:24:01.204Z,0.20
2022-07-31T12:26:33.407Z,0.20
2022-07-31T12:29:07.688Z,0.28
2022-07-31T12:31:48.576Z,0.30
2022-07-31T12:34:39.137Z,0.38
2022-07-31T12:37:17.666Z,0.30
2022-07-31T12:39:59.725Z,0.43
2022-07-31T12:42:41.643Z,0.20
2022-07-31T12:45:18.393Z,0.22
2022-07-31T12:47:51.576Z,0.30
2022-07-31T12:50:20.653Z,0.22
2022-07-31T12:52:47.805Z,0.20
2022-07-31T12:55:17.214Z,0.28
2022-07-31T12:57:51.290Z,0.30
2022-07-31T13:00:22.913Z,0.28
2022-07-31T13:05:17.491Z,0.30
2022-07-31T13:07:44.424Z,0.30
2022-07-31T13:10:14.779Z,0.30
2022-07-31T13:12:52.003Z,0.25
2022-07-31T13:15:29.896Z,0.40
2022-07-31T13:18:05.256Z,0.30
2022-07-31T13:20:32.482Z,0.28
2022-07-31T13:22:59.770Z,0.20
2022-07-31T13:25:28.582Z,0.40
2022-07-31T13:27:55.439Z,0.38
2022-07-31T13:30:22.371Z,0.50
2022-07-31T13:32:49.167Z,0.40
2022-07-31T13:35:24.153Z,0.40
2022-07-31T13:37:54.522Z,0.30
2022-07-31T13:40:41.603Z,0.30
2022-07-31T13:43:09.047Z,0.40
2022-07-31T13:45:37.366Z,0.50
2022-07-31T13:48:08.911Z,0.20
2022-07-31T13:50:38.192Z,0.50
2022-07-31T13:53:05.241Z,0.20
2022-07-31T13:55:32.279Z,0.40
2022-07-31T13:58:01.511Z,0.30
2022-07-31T14:00:29.870Z,0.25
2022-07-31T14:02:57.232Z,0.22
2022-07-31T14:05:26.463Z,0.40
2022-07-31T14:07:54.782Z,0.40
2022-07-31T14:10:22.184Z,0.30
2022-07-31T14:12:49.380Z,0.30
2022-07-31T14:15:18.599Z,0.30
2022-07-31T14:17:45.906Z,0.30
2022-07-31T14:20:13.735Z,0.47
2022-07-31T14:22:41.367Z,0.55
2022-07-31T14:25:09.600Z,0.40
2022-07-31T14:27:38.749Z,0.80
2022-07-31T14:30:07.733Z,0.32
2022-07-31T14:32:34.726Z,0.30
2022-07-31T14:35:06.005Z,1.17
2022-07-31T14:37:35.856Z,0.35
2022-07-31T14:40:04.064Z,1.75
2022-07-31T14:42:31.015Z,1.23
2022-07-31T14:44:59.088Z,0.50
2022-07-31T14:47:26.441Z,0.60
2022-07-31T14:50:07.644Z,0.50
2022-07-31T14:52:37.280Z,0.40
2022-07-31T14:55:04.633Z,1.02
2022-07-31T14:57:31.680Z,0.30
2022-07-31T14:59:59.086Z,0.20
2022-07-31T15:02:26.087Z,0.50
2022-07-31T15:04:53.185Z,0.40
2022-07-31T15:07:38.600Z,0.38
2022-07-31T15:10:09.745Z,0.30
2022-07-31T15:12:36.653Z,0.40
2022-07-31T15:15:04.515Z,0.50
2022-07-31T15:17:31.447Z,0.30
2022-07-31T15:19:58.397Z,0.20
2022-07-31T15:22:25.245Z,0.47
2022-07-31T15:24:52.297Z,0.32
2022-07-31T15:27:20.920Z,0.32
2022-07-31T15:30:03.794Z,0.30
2022-07-31T15:32:38.522Z,0.30
2022-07-31T15:37:34.917Z,0.20
2022-07-31T15:40:04.760Z,0.30
2022-07-31T15:42:32.491Z,0.50
2022-07-31T15:44:59.596Z,0.40
2022-07-31T15:47:26.495Z,0.30
2022-07-31T15:49:53.431Z,0.30
2022-07-31T15:52:20.277Z,0.30
2022-07-31T15:54:51.644Z,0.28
2022-07-31T15:57:22.671Z,0.30
2022-07-31T15:59:50.838Z,0.28
2022-07-31T16:02:18.354Z,0.30
2022-07-31T16:04:52.970Z,0.30
2022-07-31T16:08:30.981Z,0.30
2022-07-31T16:10:17.457Z,0.40
2022-07-31T16:12:48.729Z,0.20
2022-07-31T16:15:18.342Z,0.40
2022-07-31T16:17:45.596Z,0.30
2022-07-31T16:20:26.606Z,0.20
2022-07-31T16:22:56.475Z,0.28
2022-07-31T16:25:24.489Z,0.30
2022-07-31T16:27:51.539Z,0.45
2022-07-31T16:30:18.485Z,0.32
2022-07-31T16:32:45.432Z,0.30
2022-07-31T16:35:12.992Z,0.63
2022-07-31T16:37:52.033Z,0.30
2022-07-31T16:40:30.146Z,0.20
2022-07-31T16:43:02.221Z,0.30
2022-07-31T16:45:48.947Z,0.30
2022-07-31T16:48:16.659Z,0.28
2022-07-31T16:50:43.603Z,0.40
2022-07-31T16:53:13.590Z,0.40
2022-07-31T16:56:00.766Z,0.43
2022-07-31T16:58:28.861Z,0.45
2022-07-31T17:00:55.821Z,0.20
2022-07-31T17:03:58.500Z,0.30
2022-07-31T17:06:11.818Z,0.30
2022-07-31T17:08:38.767Z,0.30
2022-07-31T17:11:05.960Z,0.40
2022-07-31T17:13:32.955Z,0.30
2022-07-31T17:15:59.903Z,0.40
2022-07-31T17:18:26.900Z,0.40
2022-07-31T17:20:55.644Z,0.30
2022-07-31T17:23:40.114Z,0.30
2022-07-31T17:26:21.096Z,0.25
2022-07-31T17:28:50.842Z,0.30
2022-07-31T17:31:19.110Z,0.20
2022-07-31T17:33:54.706Z,0.30
2022-07-31T17:36:29.393Z,0.30
2022-07-31T17:38:57.501Z,0.30
2022-07-31T17:41:26.070Z,0.20
2022-07-31T17:43:56.151Z,0.30
2022-07-31T17:46:34.620Z,0.25
2022-07-31T17:49:06.217Z,0.40
2022-07-31T17:51:33.403Z,0.30
2022-07-31T17:54:00.943Z,0.30
2022-07-31T17:56:28.136Z,0.22
2022-07-31T17:59:04.305Z,0.20
2022-07-31T18:01:32.329Z,0.22
2022-07-31T18:03:59.633Z,0.38
2022-07-31T18:06:26.713Z,0.40
2022-07-31T18:08:53.973Z,0.43
2022-07-31T18:11:21.834Z,0.35
2022-07-31T18:13:51.739Z,0.35
2022-07-31T18:16:23.144Z,0.40
2022-07-31T18:18:54.160Z,0.25
2022-07-31T18:21:21.449Z,0.40
2022-07-31T18:23:48.338Z,0.20
2022-07-31T18:26:15.267Z,0.30
2022-07-31T18:28:42.238Z,0.20
2022-07-31T18:31:13.229Z,0.30
2022-07-31T18:33:56.082Z,0.40
2022-07-31T18:36:23.032Z,0.28
2022-07-31T18:38:50.335Z,0.38
2022-07-31T18:41:17.277Z,0.38
2022-07-31T18:43:44.184Z,0.55
2022-07-31T18:46:11.170Z,0.40
2022-07-31T18:48:38.017Z,0.50
2022-07-31T18:51:05.677Z,0.20
2022-07-31T18:53:33.436Z,0.30
2022-07-31T18:56:00.593Z,0.47
2022-07-31T18:58:27.638Z,0.30
2022-07-31T19:00:55.772Z,0.43
2022-07-31T19:03:24.499Z,0.52
2022-07-31T19:05:53.188Z,0.50
2022-07-31T19:08:20.899Z,0.43
2022-07-31T19:10:49.789Z,0.40
2022-07-31T19:13:18.831Z,0.30
2022-07-31T19:15:47.723Z,0.60
2022-07-31T19:18:15.126Z,0.38
2022-07-31T19:21:00.137Z,0.43
2022-07-31T19:23:29.757Z,0.45
2022-07-31T19:26:03.431Z,0.63
2022-07-31T19:28:32.110Z,0.32
2022-07-31T19:30:59.399Z,0.43
2022-07-31T19:33:26.488Z,0.25
2022-07-31T19:35:58.864Z,0.40
2022-07-31T19:38:29.185Z,0.30
2022-07-31T19:40:56.085Z,0.40
2022-07-31T19:43:23.798Z,0.20
2022-07-31T19:45:59.830Z,0.40
2022-07-31T19:48:38.420Z,0.60
2022-07-31T19:51:05.312Z,0.35
2022-07-31T19:53:32.275Z,0.50
2022-07-31T19:56:01.416Z,0.30
2022-07-31T19:58:28.465Z,0.35
2022-07-31T20:00:55.310Z,0.30
2022-07-31T20:03:22.391Z,0.40
2022-07-31T20:05:49.388Z,0.40
2022-07-31T20:08:16.296Z,0.60
2022-07-31T20:10:43.182Z,0.47
2022-07-31T20:13:10.060Z,0.40
2022-07-31T20:15:51.976Z,0.40
2022-07-31T20:18:28.590Z,0.68
2022-07-31T20:21:00.134Z,0.60
2022-07-31T20:23:28.118Z,0.40
2022-07-31T20:25:55.477Z,0.40
2022-07-31T20:28:22.822Z,0.40
2022-07-31T20:30:49.771Z,0.50
2022-07-31T20:33:16.708Z,0.40
2022-07-31T20:35:47.968Z,0.30
2022-07-31T20:38:26.063Z,0.60
2022-07-31T20:40:55.733Z,0.40
2022-07-31T20:43:29.844Z,0.65
2022-07-31T20:45:58.323Z,0.50
2022-07-31T20:48:32.941Z,0.60
2022-07-31T20:51:01.896Z,0.55
2022-07-31T20:53:29.607Z,0.40
2022-07-31T20:55:57.004Z,0.50
2022-07-31T20:58:25.130Z,0.57
2022-07-31T21:00:53.478Z,0.50
2022-07-31T21:03:21.425Z,0.75
2022-07-31T21:05:49.036Z,1.48
2022-07-31T21:08:16.810Z,0.60
2022-07-31T21:10:44.008Z,0.60
2022-07-31T21:13:11.413Z,0.60
2022-07-31T21:15:42.340Z,0.50
2022-07-31T21:18:21.738Z,0.50
2022-07-31T21:20:53.440Z,0.65
2022-07-31T21:23:27.669Z,0.60
2022-07-31T21:25:56.441Z,0.90
2022-07-31T21:28:24.766Z,0.65
2022-07-31T21:30:56.546Z,0.70
2022-07-31T21:33:25.526Z,0.80
2022-07-31T21:35:53.438Z,0.70
2022-07-31T21:38:21.211Z,0.63
2022-07-31T21:40:48.615Z,0.77
2022-07-31T21:43:18.672Z,0.80
2022-07-31T21:45:55.178Z,0.60
2022-07-31T21:48:26.080Z,1.05
2022-07-31T21:50:54.307Z,0.70
2022-07-31T21:53:21.559Z,0.77
2022-07-31T21:55:48.512Z,0.70
2022-07-31T21:58:15.911Z,1.05
2022-07-31T22:00:43.417Z,0.57
2022-07-31T22:03:10.323Z,0.80
2022-07-31T22:05:55.797Z,0.80
2022-07-31T22:08:22.854Z,0.70
2022-07-31T22:10:51.577Z,1.20
2022-07-31T22:13:19.925Z,0.80
2022-07-31T22:15:50.373Z,0.60
2022-07-31T22:18:31.077Z,0.80
2022-07-31T22:20:58.986Z,0.80
2022-07-31T22:23:27.702Z,0.98
2022-07-31T22:25:55.893Z,1.20
2022-07-31T22:28:24.008Z,0.88
2022-07-31T22:30:51.934Z,0.80
2022-07-31T22:33:19.797Z,0.80
2022-07-31T22:35:59.145Z,0.80
2022-07-31T22:38:27.712Z,1.00
2022-07-31T22:40:54.703Z,0.70
2022-07-31T22:44:09.862Z,0.88
2022-07-31T22:46:11.840Z,1.05
2022-07-31T22:48:41.002Z,0.90
2022-07-31T22:51:09.026Z,1.05
2022-07-31T22:53:37.711Z,0.88
2022-07-31T22:56:04.902Z,1.00
2022-07-31T22:58:31.939Z,1.15
2022-07-31T23:00:58.884Z,1.08
2022-07-31T23:03:25.775Z,1.02
2022-07-31T23:06:13.099Z,1.17
2022-07-31T23:08:39.595Z,1.10
2022-07-31T23:11:06.494Z,1.30
2022-07-31T23:13:33.436Z,1.17
2022-07-31T23:16:00.441Z,1.10
2022-07-31T23:18:27.468Z,0.98
2022-07-31T23:20:54.369Z,1.10
2022-07-31T23:23:21.223Z,0.77
2022-07-31T23:25:48.094Z,1.00
2022-07-31T23:28:14.965Z,0.95
2022-07-31T23:30:41.942Z,0.93
2022-07-31T23:33:08.832Z,1.35
2022-07-31T23:35:35.733Z,1.00
2022-07-31T23:38:02.625Z,1.10
2022-07-31T23:40:29.626Z,0.80
2022-07-31T23:42:56.516Z,0.73
2022-07-31T23:45:23.786Z,2.00
2022-07-31T23:47:50.964Z,0.93
2022-07-31T23:50:17.875Z,1.08
2022-07-31T23:52:45.413Z,0.90
2022-07-31T23:55:13.231Z,1.15
2022-07-31T23:57:41.053Z,1.10
